ADDS METAR Data INFO
IDs: Format: Raw Decoded Include TAF

Data at: 0856 UTC 22 Feb 2018

KBGR 220853Z 31012KT 10SM CLR M01/M08 A3054 RMK AO2 SLP344 T10061083 51029
KBGR 220753Z 31010KT 10SM CLR 01/M08 A3052 RMK AO2 SLP337 T00061078
KBGR 220653Z 32015KT 10SM CLR 01/M07 A3050 RMK AO2 SLP329 T00111072
KBGR 220553Z 32018KT 10SM FEW180 02/M06 A3046 RMK AO2 SLP314 T00221056 10122 20017 51053
KBGR 220453Z 31014KT 10SM CLR 03/M04 A3041 RMK AO2 SLP298 T00331044 401390011
KBGR 220353Z 32016G25KT 10SM CLR 04/M04 A3035 RMK AO2 PK WND 32028/0324 PRESRR SLP278 T00391039
KBGR 212353Z 31016G23KT 10SM SCT020 OVC075 12/07 A3015 RMK AO2 PRESRR SLP210 T01220067 10139 20061 51066
KBGR 212253Z 29011G15KT 10SM OVC055 14/09 A3008 RMK AO2 SLP187 T01390089
KBGR 212153Z 25005KT 10SM SCT041 OVC060 12/08 A3004 RMK AO2 SLP173 T01220083
KBGR 212053Z 17008KT 10SM SCT050 BKN130 08/07 A2995 RMK AO2 SLP143 T00830072 56016
KBGR 211953Z 16008KT 10SM SCT030 BKN090 09/07 A2996 RMK AO2 SLP145 T00890067
KBGR 211853Z 19009KT 10SM FEW030 SCT100 09/07 A2997 RMK AO2 SLP149 T00940072
KBGR 211753Z 16008KT 10SM FEW003 BKN030 07/06 A3000 RMK AO2 SLP159 4/001 T00670061 10067 20022 58033
KBGR 211739Z 18007KT 10SM SCT003 BKN020 06/06 A3001 RMK AO2 T00610061
KBGR 211716Z 19005KT 4SM BR OVC002 06/06 A3003 RMK AO2 T00610061
KBGR 211700Z 21007KT 2SM BR OVC002 06/06 A3003 RMK AO2 T00560056
KBGR 211653Z 21009KT 1SM R15/P6000FT BR OVC002 06/06 A3003 RMK AO2 SFC VIS 1 1/2 SLP171 T00560056
KBGR 211600Z 17009KT 1/2SM R15/3000VP6000FT BR OVC002 05/05 A3006 RMK AO2 SFC VIS 3/4 PRESFR T00500050
KBGR 211553Z 18007KT 1/4SM R15/6000VP6000FT BR OVC002 05/05 A3007 RMK AO2 SFC VIS 3/4 SLP184 T00500050
KBGR 211515Z 19007KT 1/8SM R15/2000V2400FT FG OVC002 04/04 A3009 RMK AO2 SFC VIS 1/2 T00440044
KBGR 211453Z 19007KT 1/8SM R15/1600V2000FT FG OVC002 04/04 A3010 RMK AO2 SFC VIS 1/4 SLP192 T00390039 56019
KBGR 211353Z 19006KT 1/8SM R15/1600FT FG VV002 03/03 A3011 RMK AO2 SFC VIS 1/4 SLP200 T00280028
KBGR 211253Z 18005KT 1/8SM R15/1200V1400FT FG VV002 03/03 A3013 RMK AO2 SFC VIS 1/4 SLP205 T00280028
KBGR 210753Z 00000KT 1/4SM R15/1600V1800FT FG VV002 01/01 A3022 RMK AO2 TWR VIS 1/2 SLP234 T00110011
KBGR 210740Z 00000KT 1/4SM R15/1800V2000FT FG VV002 02/02 A3022 RMK AO2 TWR VIS 1/2 T00170017
KBGR 210732Z 00000KT 1/2SM R15/1800V2000FT FG VV002 01/01 A3022 RMK AO2 T00110011
KBGR 210653Z 00000KT 1/2SM R15/3000VP6000FT BR OVC003 01/01 A3025 RMK AO2 SFC VIS 1 SLP245 T00110011
KBGR 210635Z 00000KT 1/2SM R15/4000VP6000FT FG OVC004 02/02 A3025 RMK AO2 T00170017
KBGR 210553Z 00000KT 1/2SM R15/2200V2400FT FG VV008 02/02 A3025 RMK AO2 SLP246 4/002 60004 T00170017 10039 20017 58007